createdAt,value
2022-12-08T00:00:12.668Z,91285.94
2022-12-08T00:02:39.335Z,91281.69
2022-12-08T00:05:24.635Z,91288.72
2022-12-08T00:08:09.588Z,91285.94
2022-12-08T00:10:51.289Z,91287.25
2022-12-08T00:13:17.755Z,91280.22
2022-12-08T00:15:44.249Z,91280.22
2022-12-08T00:18:10.722Z,91275.38
2022-12-08T00:20:37.172Z,91272.47
2022-12-08T00:23:04.371Z,91270.31
2022-12-08T00:25:31.968Z,91270.19
2022-12-08T00:27:58.468Z,91264.72
2022-12-08T00:30:24.928Z,91266.69
2022-12-08T00:32:51.403Z,91263.06
2022-12-08T00:35:17.900Z,91256.06
2022-12-08T00:37:44.359Z,91262.97
2022-12-08T00:40:11.029Z,91254.59
2022-12-08T00:42:37.541Z,91258.75
2022-12-08T00:45:04.358Z,91253.16
2022-12-08T00:47:30.787Z,91257.28
2022-12-08T00:49:57.241Z,91257.28
2022-12-08T00:52:24.863Z,91255.84
2022-12-08T00:54:51.324Z,91253.03
2022-12-08T00:57:17.771Z,91251.50
2022-12-08T00:59:44.226Z,91251.50
2022-12-08T01:02:10.698Z,91254.88
2022-12-08T01:04:38.081Z,91244.47
2022-12-08T01:07:04.419Z,91245.94
2022-12-08T01:09:30.874Z,91247.25
2022-12-08T01:11:57.347Z,91252.72
2022-12-08T01:14:23.778Z,91251.28
2022-12-08T01:16:50.341Z,91244.25
2022-12-08T01:19:17.678Z,91246.94
2022-12-08T01:21:45.512Z,91248.38
2022-12-08T01:24:14.660Z,91247.34
2022-12-08T01:26:41.428Z,91252.31
2022-12-08T01:29:08.699Z,91255.09
2022-12-08T01:31:35.279Z,91257.16
2022-12-08T01:34:01.891Z,91256.41
2022-12-08T01:36:30.630Z,91250.13
2022-12-08T01:38:59.988Z,91254.25
2022-12-08T01:41:29.965Z,91252.19
2022-12-08T01:44:00.779Z,91246.50
2022-12-08T01:46:30.095Z,91244.34
2022-12-08T01:49:16.835Z,91247.75
2022-12-08T01:51:55.375Z,91245.38
2022-12-08T01:54:25.706Z,91247.63
2022-12-08T01:57:03.891Z,91241.44
2022-12-08T01:59:32.966Z,91242.19
2022-12-08T02:01:59.535Z,91235.13
2022-12-08T02:04:26.064Z,91230.28
2022-12-08T02:06:53.522Z,91227.41
2022-12-08T02:09:20.083Z,91230.28
2022-12-08T02:11:47.019Z,91230.81
2022-12-08T02:14:14.692Z,91228.63
2022-12-08T02:17:01.676Z,91229.38
2022-12-08T02:20:13.198Z,91218.91
2022-12-08T02:22:54.661Z,91215.31
2022-12-08T02:25:57.087Z,91219.44
2022-12-08T02:28:35.367Z,91218.81
2022-12-08T02:31:23.644Z,91213.84
2022-12-08T02:34:31.779Z,91207.88
2022-12-08T02:37:16.683Z,91205.28
2022-12-08T02:40:19.935Z,91199.81
2022-12-08T02:42:57.763Z,91197.13
2022-12-08T02:46:00.490Z,91199.91
2022-12-08T02:48:29.039Z,91201.97
2022-12-08T02:50:55.571Z,91197.13
2022-12-08T02:53:22.068Z,91202.59
2022-12-08T02:55:56.777Z,91199.81
2022-12-08T02:58:35.448Z,91197.13
2022-12-08T03:01:33.156Z,91208.28
2022-12-08T03:04:02.451Z,91197.13
2022-12-08T03:06:46.592Z,91193.72
2022-12-08T03:09:30.451Z,91183.09
2022-12-08T03:12:01.913Z,91191.34
2022-12-08T03:14:30.436Z,91184.44
2022-12-08T03:16:59.345Z,91189.38
2022-12-08T03:19:31.756Z,91181.13
2022-12-08T03:22:03.552Z,91178.25
2022-12-08T03:24:43.485Z,91178.97
2022-12-08T03:27:19.176Z,91184.53
2022-12-08T03:29:47.410Z,91179.59
2022-12-08T03:32:39.954Z,91173.41
2022-12-08T03:35:14.030Z,91176.06
2022-12-08T03:37:41.045Z,91178.97
2022-12-08T03:40:10.548Z,91172.66
2022-12-08T03:42:36.992Z,91174.63
2022-12-08T03:45:04.663Z,91173.91
2022-12-08T03:47:31.219Z,91166.25
2022-12-08T03:49:57.670Z,91172.56
2022-12-08T03:52:24.218Z,91166.34
2022-12-08T03:54:50.707Z,91156.56
2022-12-08T03:57:17.232Z,91160.09
2022-12-08T03:59:43.691Z,91156.56
2022-12-08T04:02:10.248Z,91152.22
2022-12-08T04:04:36.729Z,91152.81
2022-12-08T04:07:03.275Z,91149.44
2022-12-08T04:09:29.726Z,91154.91
2022-12-08T04:11:56.165Z,91152.13
2022-12-08T04:14:22.628Z,91149.13
2022-12-08T04:16:49.082Z,91144.28
2022-12-08T04:19:15.560Z,91154.06
2022-12-08T04:21:42.016Z,91152.13
2022-12-08T04:24:09.291Z,91149.34
2022-12-08T04:26:35.722Z,91148.72
2022-12-08T04:29:02.165Z,91154.81
2022-12-08T04:31:28.746Z,91145.19
2022-12-08T04:33:55.266Z,91143.66
2022-12-08T04:36:21.748Z,91142.41
2022-12-08T04:38:48.192Z,91136.63
2022-12-08T04:41:14.663Z,91136.72
2022-12-08T04:43:41.660Z,91128.38
2022-12-08T04:46:09.205Z,91126.94
2022-12-08T04:48:38.000Z,91132.50
2022-12-08T04:51:05.120Z,91138.06
2022-12-08T04:53:32.424Z,91131.16
2022-12-08T04:55:59.131Z,91129.09
2022-12-08T04:58:25.694Z,91124.25
2022-12-08T05:00:52.293Z,91132.50
2022-12-08T05:03:22.530Z,91125.56
2022-12-08T05:05:53.250Z,91131.03
2022-12-08T05:08:19.940Z,91125.97
2022-12-08T05:10:46.495Z,91133.53
2022-12-08T05:13:12.946Z,91127.97
2022-12-08T05:15:39.395Z,91125.16
2022-12-08T05:18:06.690Z,91119.91
2022-12-08T05:20:34.004Z,91122.59
2022-12-08T05:23:00.520Z,91127.56
2022-12-08T05:25:27.061Z,91125.56
2022-12-08T05:28:06.178Z,91125.47
2022-12-08T05:30:40.048Z,91108.66
2022-12-08T05:33:06.491Z,91109.47
2022-12-08T05:35:32.943Z,91104.41
2022-12-08T05:37:59.391Z,91104.41
2022-12-08T05:40:25.835Z,91100.31
2022-12-08T05:42:52.979Z,91109.47
2022-12-08T05:45:19.434Z,91110.22
2022-12-08T05:47:45.952Z,91108.75
2022-12-08T05:50:12.458Z,91105.88
2022-12-08T05:52:38.932Z,91108.75
2022-12-08T05:55:05.735Z,91110.00
2022-12-08T05:57:32.215Z,91113.50
2022-12-08T05:59:59.555Z,91113.50
2022-12-08T06:02:26.588Z,91111.63
2022-12-08T06:04:53.195Z,91112.88
2022-12-08T06:07:19.640Z,91114.84
2022-12-08T06:09:46.100Z,91104.41
2022-12-08T06:12:12.820Z,91098.84
2022-12-08T06:14:39.815Z,91104.19
2022-12-08T06:17:06.355Z,91107.09
2022-12-08T06:19:32.848Z,91102.25
2022-12-08T06:21:59.295Z,91097.41
2022-12-08T06:24:25.891Z,91101.63
2022-12-08T06:26:52.328Z,91102.38
2022-12-08T06:29:18.780Z,91105.66
2022-12-08T06:31:45.375Z,91104.41
2022-12-08T06:34:11.950Z,91097.59
2022-12-08T06:36:38.484Z,91101.53
2022-12-08T06:39:05.106Z,91099.97
2022-12-08T06:41:31.559Z,91097.31
2022-12-08T06:43:58.863Z,91101.22
2022-12-08T06:46:25.418Z,91116.81
2022-12-08T06:48:52.052Z,91108.56
2022-12-08T06:51:20.911Z,91115.47
2022-12-08T06:53:47.589Z,91118.47
2022-12-08T06:56:16.210Z,91106.59
2022-12-08T06:58:46.100Z,91113.00
2022-12-08T07:01:15.467Z,91107.41
2022-12-08T07:03:43.620Z,91117.22
2022-12-08T07:06:16.858Z,91119.31
2022-12-08T07:08:43.572Z,91115.06
2022-12-08T07:11:13.224Z,91121.34
2022-12-08T07:13:43.159Z,91114.94
2022-12-08T07:16:10.872Z,91110.72
2022-12-08T07:18:38.679Z,91125.28
2022-12-08T07:21:10.927Z,91123.94
2022-12-08T07:23:38.277Z,91119.91
2022-12-08T07:26:05.611Z,91118.69
2022-12-08T07:28:37.070Z,91118.47
2022-12-08T07:31:04.390Z,91126.19
2022-12-08T07:33:31.672Z,91119.19
2022-12-08T07:36:02.917Z,91117.09
2022-12-08T07:38:30.337Z,91115.56
2022-12-08T07:40:56.734Z,91111.44
2022-12-08T07:43:23.575Z,91110.72
2022-12-08T07:45:50.861Z,91115.56
2022-12-08T07:48:17.457Z,91112.88
2022-12-08T07:50:44.659Z,91118.69
2022-12-08T07:53:11.339Z,91122.59
2022-12-08T07:55:44.712Z,91115.56
2022-12-08T07:58:11.796Z,91109.38
2022-12-08T08:00:38.411Z,91101.75
2022-12-08T08:03:05.060Z,91112.88
2022-12-08T08:05:31.558Z,91109.47
2022-12-08T08:07:58.097Z,91116.91
2022-12-08T08:10:24.687Z,91099.06
2022-12-08T08:12:51.168Z,91098.84
2022-12-08T08:15:19.256Z,91107.81
2022-12-08T08:17:50.645Z,91111.34
2022-12-08T08:20:17.963Z,91100.50
2022-12-08T08:22:49.608Z,91104.41
2022-12-08T08:25:17.147Z,91098.34
2022-12-08T08:27:43.724Z,91098.75
2022-12-08T08:30:16.592Z,91094.63
2022-12-08T08:32:46.373Z,91098.63
2022-12-08T08:35:12.999Z,91093.06
2022-12-08T08:37:43.019Z,91096.06
2022-12-08T08:40:12.530Z,91098.84
2022-12-08T08:42:39.013Z,91097.41
2022-12-08T08:45:05.944Z,91094.63
2022-12-08T08:47:32.431Z,91095.94
2022-12-08T08:49:58.887Z,91095.44
2022-12-08T08:52:25.360Z,91086.38
2022-12-08T08:54:51.807Z,91093.28
2022-12-08T08:57:23.679Z,91086.38
2022-12-08T08:59:51.951Z,91084.81
2022-12-08T09:02:19.359Z,91079.22
2022-12-08T09:04:46.280Z,91084.28
2022-12-08T09:07:13.239Z,91089.25
2022-12-08T09:09:40.383Z,91076.56
2022-12-08T09:12:07.173Z,91083.47
2022-12-08T09:14:34.022Z,91070.47
2022-12-08T09:17:00.533Z,91077.28
2022-12-08T09:19:27.078Z,91077.38
2022-12-08T09:21:53.737Z,91086.56
2022-12-08T09:24:20.191Z,91078.19
2022-12-08T09:26:47.231Z,91080.88
2022-12-08T09:29:14.708Z,91072.44
2022-12-08T09:31:41.895Z,91072.63
2022-12-08T09:34:10.001Z,91073.88
2022-12-08T09:36:36.515Z,91055.91
2022-12-08T09:39:03.436Z,91058.59
2022-12-08T09:41:39.297Z,91057.88
2022-12-08T09:44:38.734Z,91057.78
2022-12-08T09:47:21.659Z,91043.31
2022-12-08T09:49:56.725Z,91038.25
2022-12-08T09:52:30.155Z,91027.13
2022-12-08T09:55:02.652Z,91019.66
2022-12-08T09:57:31.948Z,91021.75
2022-12-08T10:00:02.928Z,91014.19
2022-12-08T10:02:30.922Z,91014.81
2022-12-08T10:04:59.111Z,91001.00
2022-12-08T10:07:55.337Z,90991.91
2022-12-08T10:10:27.566Z,90983.44
2022-12-08T10:13:03.088Z,90982.22
2022-12-08T10:15:51.598Z,90975.81
2022-12-08T10:18:27.000Z,90972.28
2022-12-08T10:20:57.497Z,90968.19
2022-12-08T10:23:35.459Z,90959.91
2022-12-08T10:26:06.002Z,90954.34
2022-12-08T10:28:34.223Z,90953.00
2022-12-08T10:31:01.093Z,90950.19
2022-12-08T10:33:29.499Z,90951.44
2022-12-08T10:36:03.075Z,90951.63
2022-12-08T10:38:31.215Z,90942.66
2022-12-08T10:41:18.364Z,90932.75
2022-12-08T10:43:49.622Z,90928.00
2022-12-08T10:46:20.033Z,90926.53
2022-12-08T10:49:03.264Z,90916.22
2022-12-08T10:51:43.313Z,90920.97
2022-12-08T10:54:33.813Z,90911.19
2022-12-08T10:57:00.301Z,90907.03
2022-12-08T10:59:27.059Z,90897.34
2022-12-08T11:01:55.675Z,90884.72
2022-12-08T11:04:36.307Z,90886.19
2022-12-08T11:07:06.154Z,90886.19
2022-12-08T11:09:36.765Z,90885.47
2022-12-08T11:12:14.967Z,90875.03
2022-12-08T11:14:44.211Z,90877.94
2022-12-08T11:17:14.717Z,90869.66
2022-12-08T11:20:03.213Z,90873.78
2022-12-08T11:22:32.440Z,90862.00
2022-12-08T11:25:08.235Z,90855.84
2022-12-08T11:27:38.812Z,90861.41
2022-12-08T11:30:23.985Z,90851.50
2022-12-08T11:33:01.427Z,90845.91
2022-12-08T11:35:33.836Z,90843.22
2022-12-08T11:38:21.467Z,90840.44
2022-12-08T11:40:52.473Z,90832.06
2022-12-08T11:43:28.482Z,90827.84
2022-12-08T11:46:01.997Z,90827.13
2022-12-08T11:48:52.362Z,90819.50
2022-12-08T11:51:28.226Z,90811.84
2022-12-08T11:54:15.737Z,90809.78
2022-12-08T11:56:49.379Z,90801.50
2022-12-08T11:59:26.372Z,90798.72
2022-12-08T12:01:53.343Z,90793.25
2022-12-08T12:04:23.235Z,90793.16
2022-12-08T12:07:26.206Z,90795.94
2022-12-08T12:10:02.449Z,90784.97
2022-12-08T12:13:07.518Z,90782.28
2022-12-08T12:15:42.900Z,90780.03
2022-12-08T12:18:39.027Z,90775.78
2022-12-08T12:21:19.274Z,90776.44
2022-12-08T12:23:57.612Z,90770.75
2022-12-08T12:26:28.112Z,90764.66
2022-12-08T12:29:02.300Z,90762.69
2022-12-08T12:31:33.008Z,90758.53
2022-12-08T12:34:15.299Z,90758.63
2022-12-08T12:36:55.894Z,90753.16
2022-12-08T12:39:27.355Z,90744.69
2022-12-08T12:42:01.728Z,90743.25
2022-12-08T12:44:28.140Z,90746.22
2022-12-08T12:46:56.958Z,90746.13
2022-12-08T12:49:43.745Z,90733.53
2022-12-08T12:52:10.190Z,90731.56
2022-12-08T12:54:36.675Z,90730.84
2022-12-08T12:57:09.227Z,90730.84
2022-12-08T12:59:43.073Z,90723.81
2022-12-08T13:02:31.244Z,90727.22
2022-12-08T13:05:01.708Z,90731.56
2022-12-08T13:07:41.076Z,90723.81
2022-12-08T13:10:16.336Z,90727.97
2022-12-08T13:12:44.787Z,90722.38
2022-12-08T13:15:22.163Z,90725.28
2022-12-08T13:17:49.345Z,90725.28
2022-12-08T13:20:22.844Z,90721.84
2022-12-08T13:23:02.045Z,90721.13
2022-12-08T13:25:40.638Z,90715.53
2022-12-08T13:28:16.351Z,90721.13
2022-12-08T13:30:50.725Z,90718.25
2022-12-08T13:33:28.362Z,90721.84
2022-12-08T13:36:21.313Z,90720.41
2022-12-08T13:38:53.996Z,90712.66
2022-12-08T13:41:24.353Z,90701.59
2022-12-08T13:47:33.316Z,90689.13
2022-12-08T13:59:07.215Z,90698.91
2022-12-08T14:01:42.050Z,90697.56
2022-12-08T14:07:04.002Z,90693.97
2022-12-08T14:09:37.223Z,90691.81
2022-12-08T14:12:25.529Z,90698.91
2022-12-08T14:15:04.848Z,90704.38
2022-12-08T14:17:31.806Z,90704.56
2022-12-08T14:20:01.960Z,90710.16
2022-12-08T14:22:36.970Z,90710.06
2022-12-08T14:25:05.854Z,90708.00
2022-12-08T14:27:35.231Z,90711.50
2022-12-08T14:30:07.512Z,90718.41
2022-12-08T14:32:44.395Z,90719.88
2022-12-08T14:35:10.797Z,90722.66
2022-12-08T14:37:46.354Z,90722.72
2022-12-08T14:40:23.069Z,90729.66
2022-12-08T14:43:15.520Z,90724.19
2022-12-08T14:45:45.030Z,90728.31
2022-12-08T14:48:38.613Z,90742.25
2022-12-08T14:51:23.550Z,90740.91
2022-12-08T14:54:13.295Z,90749.91
2022-12-08T14:56:47.635Z,90746.59
2022-12-08T14:59:30.325Z,90747.91
2022-12-08T15:02:09.030Z,90752.88
2022-12-08T15:04:38.775Z,90760.53
2022-12-08T15:07:11.996Z,90763.41
2022-12-08T15:09:41.800Z,90773.84
2022-12-08T15:12:14.332Z,90767.53
2022-12-08T15:14:43.450Z,90781.56
2022-12-08T15:17:29.815Z,90787.13
2022-12-08T15:19:57.260Z,90783.03
2022-12-08T15:22:24.424Z,90782.94
2022-12-08T15:24:50.856Z,90790.56
2022-12-08T15:27:19.640Z,90792.72
2022-12-08T15:29:49.138Z,90795.59
2022-12-08T15:32:23.027Z,90793.44
2022-12-08T15:34:50.292Z,90791.44
2022-12-08T15:37:22.201Z,90790.75
2022-12-08T15:39:49.521Z,90801.19
2022-12-08T15:42:15.954Z,90799.91
2022-12-08T15:44:43.076Z,90795.78
2022-12-08T15:47:19.231Z,90798.50
2022-12-08T15:49:47.195Z,90798.50
2022-12-08T15:52:19.804Z,90797.03
2022-12-08T15:54:46.378Z,90788.75
2022-12-08T15:58:24.871Z,90799.22
2022-12-08T16:00:51.330Z,90781.22
2022-12-08T16:09:23.098Z,90790.38
2022-12-08T16:12:09.940Z,90789.69
2022-12-08T16:17:25.132Z,90779.75
2022-12-08T16:19:51.983Z,90786.06
2022-12-08T16:22:52.792Z,90792.47
2022-12-08T16:25:19.503Z,90787.59
2022-12-08T16:30:34.516Z,90800.19
2022-12-08T16:33:01.618Z,90798.84
2022-12-08T16:35:28.461Z,90781.41
2022-12-08T16:37:55.003Z,90794.00
2022-12-08T16:40:21.622Z,90792.03
2022-12-08T16:42:50.050Z,90794.00
2022-12-08T16:45:16.765Z,90782.91
2022-12-08T16:48:03.533Z,90790.47
2022-12-08T16:50:35.033Z,90777.97
2022-12-08T16:53:07.078Z,90779.31
2022-12-08T16:55:34.321Z,90775.28
2022-12-08T16:58:01.231Z,90773.94
2022-12-08T17:00:29.267Z,90769.72
2022-12-08T17:02:56.074Z,90773.94
2022-12-08T17:05:24.562Z,90785.16
2022-12-08T17:07:52.423Z,90785.16
2022-12-08T17:10:22.934Z,90790.03
2022-12-08T17:12:50.312Z,90788.81
2022-12-08T17:15:18.459Z,90789.50
2022-12-08T17:17:44.956Z,90792.41
2022-12-08T17:20:17.133Z,90792.31
2022-12-08T17:22:44.197Z,90799.25
2022-12-08T17:25:11.264Z,90806.25
2022-12-08T17:27:38.357Z,90804.09
2022-12-08T17:30:06.870Z,90806.25
2022-12-08T17:32:33.545Z,90807.47
2022-12-08T17:35:00.090Z,90815.97
2022-12-08T17:37:26.608Z,90815.84
2022-12-08T17:39:53.164Z,90808.94
2022-12-08T17:42:19.687Z,90803.47
2022-12-08T17:44:46.688Z,90797.78
2022-12-08T17:47:13.196Z,90792.94
2022-12-08T17:49:39.652Z,90800.66
2022-12-08T17:52:08.927Z,90797.78
2022-12-08T17:54:36.440Z,90797.06
2022-12-08T17:57:03.517Z,90795.09
2022-12-08T17:59:30.795Z,90796.53
2022-12-08T18:01:58.255Z,90801.50
2022-12-08T18:04:26.088Z,90801.41
2022-12-08T18:06:52.596Z,90811.91
2022-12-08T18:09:20.295Z,90806.34
2022-12-08T18:11:46.926Z,90806.16
2022-12-08T18:14:14.775Z,90814.53
2022-12-08T18:16:46.394Z,90810.41
2022-12-08T18:19:13.931Z,90800.66
2022-12-08T18:21:41.664Z,90804.91
2022-12-08T18:24:09.431Z,90804.81
2022-12-08T18:26:36.142Z,90812.56
2022-12-08T18:29:02.701Z,90816.06
2022-12-08T18:31:29.186Z,90809.13
2022-12-08T18:33:55.698Z,90809.13
2022-12-08T18:36:24.332Z,90816.16
2022-12-08T18:38:51.968Z,90825.88
2022-12-08T18:41:24.511Z,90815.97
2022-12-08T18:43:51.699Z,90828.56
2022-12-08T18:46:18.239Z,90841.19
2022-12-08T18:48:48.227Z,90832.91
2022-12-08T18:51:17.133Z,90827.31
2022-12-08T18:53:44.858Z,90832.91
2022-12-08T18:56:26.277Z,90832.91
2022-12-08T18:58:58.458Z,90831.63
2022-12-08T19:01:28.008Z,90828.75
2022-12-08T19:04:20.009Z,90831.63
2022-12-08T19:06:41.169Z,90831.53
2022-12-08T19:09:10.699Z,90841.34
2022-12-08T19:11:37.160Z,90841.34
2022-12-08T19:14:03.980Z,90839.91
2022-12-08T19:16:30.885Z,90837.22
2022-12-08T19:18:57.393Z,90836.50
2022-12-08T19:21:24.715Z,90828.84
2022-12-08T19:23:52.715Z,90829.56
2022-12-08T19:26:19.703Z,90833.78
2022-12-08T19:28:46.168Z,90827.56
2022-12-08T19:31:12.709Z,90830.38
2022-12-08T19:33:39.375Z,90828.22
2022-12-08T19:36:13.876Z,90831.00
2022-12-08T19:38:59.224Z,90826.06
2022-12-08T19:41:44.652Z,90827.47
2022-12-08T19:44:34.214Z,90828.75
2022-12-08T19:47:01.601Z,90835.69
2022-12-08T19:49:28.375Z,90832.91
2022-12-08T19:51:54.979Z,90831.63
2022-12-08T19:54:21.475Z,90830.19
2022-12-08T19:56:48.013Z,90830.19
2022-12-08T19:59:15.733Z,90831.72
2022-12-08T20:01:44.026Z,90848.38
2022-12-08T20:04:14.351Z,90842.06
2022-12-08T20:06:40.873Z,90848.38
2022-12-08T20:09:08.129Z,90842.88
2022-12-08T20:11:34.587Z,90840.09
2022-12-08T20:14:01.102Z,90856.19
2022-12-08T20:16:27.677Z,90852.69
2022-12-08T20:18:54.232Z,90852.69
2022-12-08T20:21:21.554Z,90855.47
2022-12-08T20:23:49.716Z,90854.13
2022-12-08T20:26:18.096Z,90841.53
2022-12-08T20:28:44.970Z,90842.34
2022-12-08T20:31:25.579Z,90854.22
2022-12-08T20:33:52.320Z,90854.13
2022-12-08T20:36:20.609Z,90841.53
2022-12-08T20:38:48.824Z,90855.47
2022-12-08T20:41:16.168Z,90848.56
2022-12-08T20:43:44.114Z,90859.72
2022-12-08T20:46:12.983Z,90838.00
2022-12-08T20:48:39.709Z,90840.09
2022-12-08T20:51:06.461Z,90838.81
2022-12-08T20:53:33.048Z,90840.78
2022-12-08T20:55:59.561Z,90842.97
2022-12-08T20:58:26.081Z,90841.53
2022-12-08T21:00:52.718Z,90840.78
2022-12-08T21:03:19.381Z,90850.00
2022-12-08T21:05:51.022Z,90836.69
2022-12-08T21:08:19.683Z,90840.25
2022-12-08T21:10:53.875Z,90833.06
2022-12-08T21:13:20.888Z,90833.78
2022-12-08T21:15:47.614Z,90830.38
2022-12-08T21:18:16.226Z,90831.72
2022-12-08T21:20:43.773Z,90826.78
2022-12-08T21:23:11.366Z,90828.03
2022-12-08T21:25:42.330Z,90821.81
2022-12-08T21:28:09.366Z,90816.31
2022-12-08T21:30:35.993Z,90814.91
2022-12-08T21:33:02.762Z,90817.69
2022-12-08T21:35:29.436Z,90816.22
2022-12-08T21:37:55.932Z,90818.31
2022-12-08T21:40:22.576Z,90816.16
2022-12-08T21:42:49.294Z,90812.00
2022-12-08T21:45:17.677Z,90812.09
2022-12-08T21:47:45.701Z,90812.75
2022-12-08T21:50:13.061Z,90816.22
2022-12-08T21:52:41.457Z,90820.28
2022-12-08T21:55:09.021Z,90830.03
2022-12-08T21:57:35.652Z,90816.88
2022-12-08T22:00:02.392Z,90823.16
2022-12-08T22:02:29.376Z,90822.97
2022-12-08T22:04:56.104Z,90825.22
2022-12-08T22:07:22.806Z,90815.97
2022-12-08T22:09:49.444Z,90815.97
2022-12-08T22:12:16.900Z,90820.28
2022-12-08T22:14:44.087Z,90814.72
2022-12-08T22:17:11.167Z,90827.31
2022-12-08T22:19:37.932Z,90825.88
2022-12-08T22:22:04.396Z,90819.56
2022-12-08T22:24:31.296Z,90807.69
2022-12-08T22:26:57.934Z,90808.22
2022-12-08T22:29:24.534Z,90807.59
2022-12-08T22:31:51.092Z,90800.66
2022-12-08T22:34:17.646Z,90793.66
2022-12-08T22:36:44.434Z,90788.09
2022-12-08T22:39:11.068Z,90789.50
2022-12-08T22:41:37.731Z,90793.66
2022-12-08T22:44:07.492Z,90794.28
2022-12-08T22:46:34.257Z,90786.03
2022-12-08T22:49:00.843Z,90787.22
2022-12-08T22:51:27.358Z,90785.16
2022-12-08T22:53:53.836Z,90782.50
2022-12-08T22:56:20.347Z,90783.84
2022-12-08T22:58:47.295Z,90776.81
2022-12-08T23:01:29.573Z,90780.88
2022-12-08T23:03:57.563Z,90768.44
2022-12-08T23:06:25.729Z,90766.97
2022-12-08T23:08:52.390Z,90759.25
2022-12-08T23:11:21.415Z,90758.56
2022-12-08T23:13:48.197Z,90765.56
2022-12-08T23:16:15.098Z,90758.56
2022-12-08T23:18:44.470Z,90752.97
2022-12-08T23:21:13.845Z,90747.41
2022-12-08T23:23:40.642Z,90745.94
2022-12-08T23:26:22.379Z,90738.22
2022-12-08T23:28:49.275Z,90737.47
2022-12-08T23:31:16.208Z,90738.84
2022-12-08T23:33:42.844Z,90740.91
2022-12-08T23:36:11.011Z,90735.41
2022-12-08T23:38:38.052Z,90727.69
2022-12-08T23:41:06.869Z,90724.16
2022-12-08T23:43:34.238Z,90722.03
2022-12-08T23:46:00.864Z,90712.22
2022-12-08T23:48:28.824Z,90715.00
2022-12-08T23:50:57.041Z,90720.50
2022-12-08T23:53:23.953Z,90713.66
2022-12-08T23:55:50.614Z,90706.00
2022-12-08T23:58:17.201Z,90713.00
